AM-0003 weather

Hoktember Highway Strip
Hoktember, Armavir Province, Armenia

Public forecast

Using degrees Celsius for public forecast. Weather courtesy of forecast.io.

METAR (pilot weather report)

Closest report is Zvartnots International Airport, 23.9 nm (44.3 km) E. Retrieved 2019/01/17 08:30 UTC (9 minutes ago):

UDYZ 170830Z 26002KT 6000 BKN046 04/M02 Q1003 R09/010070 NOSIG

TAF (pilot weather forecast)

Closest forecast is Zvartnots International Airport, 23.9 nm (44.3 km) E. Retrieved 2019/01/17 06:00 UTC (3 hours ago):

TAF UDYZ 170513Z 1706/1806 22006KT 3500 BR BKN040 OVC100 TEMPO 1706/1718 VRB16KT 1000 SHRASN BR BKN020CB